Time;durP1;ratioP1;P1;durP2;ratioP2;P2;SDS_P1;SDS_P2;PMS_P1;PMS_P2;Temp;Humidity;BMP_temperature;BMP_pressure;BME280_temperature;BME280_humidity;BME280_pressure;Samples;Min_cycle;Max_cycle;Signal;HPM_P1;HPM_P2
2023/01/23 00:00:57;;;;;;;;;15.50;14.00;;;;;3.16;78.32;103628.44;5043036;28;11507;-69
2023/01/23 00:03:24;;;;;;;;;14.50;10.50;;;;;3.14;78.14;103618.81;5045471;28;11611;-68
2023/01/23 00:06:02;;;;;;;;;14.00;12.25;;;;;3.21;78.55;103625.56;5050651;28;11620;-68
2023/01/23 00:08:29;;;;;;;;;9.50;9.50;;;;;3.22;77.94;103616.63;5050422;28;12337;-67
2023/01/23 00:10:56;;;;;;;;;13.25;11.00;;;;;3.22;78.10;103617.47;5048604;28;11608;-68
2023/01/23 00:13:22;;;;;;;;;13.50;10.50;;;;;3.22;78.21;103614.81;5046299;28;11504;-68
2023/01/23 00:15:49;;;;;;;;;22.50;17.75;;;;;3.22;77.77;103621.94;5048766;28;11622;-69
2023/01/23 00:18:16;;;;;;;;;13.50;12.50;;;;;3.20;78.35;103616.72;5038969;28;11556;-70
2023/01/23 00:20:42;;;;;;;;;15.25;14.25;;;;;3.21;77.87;103622.88;5046961;28;11542;-70
2023/01/23 00:23:09;;;;;;;;;18.50;12.75;;;;;3.21;78.46;103623.75;5050849;28;11524;-68
2023/01/23 00:25:36;;;;;;;;;13.25;11.50;;;;;3.23;78.28;103623.66;5032785;28;11543;-67
2023/01/23 00:28:03;;;;;;;;;17.00;13.25;;;;;3.21;78.33;103614.91;5034634;28;11603;-67
2023/01/23 00:30:31;;;;;;;;;24.00;15.00;;;;;3.17;78.21;103618.66;5048067;28;11615;-69
2023/01/23 00:32:57;;;;;;;;;22.00;16.00;;;;;3.17;78.95;103614.19;5045218;28;11550;-69
2023/01/23 00:35:24;;;;;;;;;11.50;11.00;;;;;3.21;79.04;103604.25;5049099;28;11549;-69
2023/01/23 00:37:53;;;;;;;;;15.00;13.50;;;;;3.25;79.18;103604.97;5047153;28;11526;-69
2023/01/23 00:40:19;;;;;;;;;14.00;11.75;;;;;3.27;78.87;103600.41;5049143;28;11535;-70
2023/01/23 00:42:46;;;;;;;;;12.25;10.75;;;;;3.30;78.85;103598.44;5048537;28;11528;-67
2023/01/23 00:45:12;;;;;;;;;13.50;13.50;;;;;3.31;78.59;103588.66;5049521;28;11673;-68
2023/01/23 00:47:39;;;;;;;;;22.25;16.50;;;;;3.33;78.91;103584.13;5064546;28;11582;-68
2023/01/23 00:50:05;;;;;;;;;12.25;11.00;;;;;3.29;78.56;103586.09;5047144;28;12237;-67
2023/01/23 00:52:32;;;;;;;;;14.50;13.00;;;;;3.28;78.78;103580.81;5051410;28;11585;-68
2023/01/23 00:54:58;;;;;;;;;18.50;15.25;;;;;3.28;78.94;103587.03;5036831;28;11566;-66
2023/01/23 00:57:25;;;;;;;;;19.75;15.00;;;;;3.26;78.42;103588.91;5045797;28;11532;-68
2023/01/23 00:59:51;;;;;;;;;13.50;12.00;;;;;3.23;79.32;103599.69;5049010;28;11612;-68
2023/01/23 01:02:18;;;;;;;;;22.25;19.75;;;;;3.18;78.41;103593.75;5045432;28;12244;-69
2023/01/23 01:04:45;;;;;;;;;18.75;15.25;;;;;3.14;79.54;103590.38;5042157;28;11524;-68
2023/01/23 01:07:11;;;;;;;;;15.00;13.25;;;;;3.16;79.98;103596.50;5048533;28;11548;-70
2023/01/23 01:09:38;;;;;;;;;13.00;11.25;;;;;3.22;80.07;103585.53;5048806;28;11643;-68
2023/01/23 01:12:05;;;;;;;;;14.00;13.00;;;;;3.26;79.91;103586.25;5047829;28;11587;-68
2023/01/23 01:14:31;;;;;;;;;11.50;10.00;;;;;3.31;80.08;103592.19;5048590;28;11566;-68
2023/01/23 01:16:58;;;;;;;;;20.25;14.25;;;;;3.32;79.38;103585.06;5043554;28;11537;-68
2023/01/23 01:19:27;;;;;;;;;18.75;15.75;;;;;3.30;78.71;103587.81;5049431;28;11592;-68
2023/01/23 01:21:53;;;;;;;;;21.75;17.50;;;;;3.20;79.20;103594.53;5037670;28;11641;-67
2023/01/23 01:24:20;;;;;;;;;16.00;14.50;;;;;3.16;79.86;103590.28;5049424;28;11568;-68
2023/01/23 01:26:46;;;;;;;;;15.25;13.00;;;;;3.16;79.72;103601.84;5045993;28;11648;-69
2023/01/23 01:29:12;;;;;;;;;18.50;14.75;;;;;3.16;79.81;103607.16;5050692;28;11483;-71
2023/01/23 01:31:42;;;;;;;;;16.50;14.00;;;;;3.11;79.71;103600.31;5050836;28;11569;-67
2023/01/23 01:34:08;;;;;;;;;15.50;13.00;;;;;3.11;80.09;103602.97;5050547;28;11518;-68
2023/01/23 01:36:35;;;;;;;;;10.75;9.50;;;;;3.19;80.50;103604.31;5053141;28;11477;-68
2023/01/23 01:39:01;;;;;;;;;15.25;13.00;;;;;3.26;80.46;103607.53;5048936;28;11617;-67
2023/01/23 01:41:27;;;;;;;;;18.25;16.50;;;;;3.23;79.21;103610.34;5050441;28;11621;-68
2023/01/23 01:43:56;;;;;;;;;14.25;14.00;;;;;3.18;79.84;103601.75;5048363;28;11647;-67
2023/01/23 01:46:25;;;;;;;;;17.25;14.00;;;;;3.16;80.05;103607.16;5063059;28;11554;-65
2023/01/23 01:49:21;;;;;;;;;16.50;14.00;;;;;3.16;80.32;103601.84;5044991;28;11553;-68
2023/01/23 01:51:59;;;;;;;;;19.50;16.50;;;;;3.15;79.73;103599.22;5053262;28;11553;-69
2023/01/23 01:54:40;;;;;;;;;20.00;16.75;;;;;3.15;80.25;103612.53;5048677;28;11514;-66
2023/01/23 01:57:29;;;;;;;;;16.75;14.00;;;;;3.09;80.21;103616.38;5046068;28;11516;-68
2023/01/23 02:00:09;;;;;;;;;15.50;15.50;;;;;3.10;80.20;103614.56;5043556;28;11512;-70
2023/01/23 02:02:51;;;;;;;;;18.75;14.00;;;;;3.09;80.37;103605.75;5050417;28;12228;-66
2023/01/23 02:05:23;;;;;;;;;17.50;11.50;;;;;3.09;80.26;103613.72;5060481;28;12297;-67
2023/01/23 02:07:58;;;;;;;;;17.00;14.25;;;;;3.09;80.65;103615.53;5047954;28;11531;-67
2023/01/23 02:10:25;;;;;;;;;15.50;12.25;;;;;3.13;80.93;103619.75;5043261;28;12256;-67
2023/01/23 02:12:52;;;;;;;;;15.75;15.75;;;;;3.14;80.30;103621.47;5058772;28;11655;-69
2023/01/23 02:15:20;;;;;;;;;13.50;11.50;;;;;3.12;80.39;103621.56;5047242;28;11530;-67
2023/01/23 02:17:50;;;;;;;;;10.75;9.50;;;;;3.17;80.88;103621.31;5049731;28;11559;-67
2023/01/23 02:20:26;;;;;;;;;20.75;17.25;;;;;3.18;80.76;103626.56;5049493;28;11505;-68
2023/01/23 02:23:04;;;;;;;;;18.75;14.25;;;;;3.22;80.53;103628.13;5042758;28;11696;-66
2023/01/23 02:25:47;;;;;;;;;12.75;12.00;;;;;3.22;80.57;103629.94;5044593;28;11648;-71
2023/01/23 02:28:16;;;;;;;;;14.50;13.00;;;;;3.19;80.01;103627.41;5048140;28;11527;-68
2023/01/23 02:30:49;;;;;;;;;17.00;14.50;;;;;3.18;79.98;103631.88;5050560;28;12448;-67
2023/01/23 02:33:23;;;;;;;;;16.75;13.00;;;;;3.16;80.22;103632.88;5048194;28;11736;-67
2023/01/23 02:35:51;;;;;;;;;13.50;13.25;;;;;3.17;80.47;103630.16;5041416;28;11530;-64
2023/01/23 02:38:23;;;;;;;;;17.50;15.25;;;;;3.22;80.79;103637.91;5049961;28;12244;-69
2023/01/23 02:40:53;;;;;;;;;18.25;12.00;;;;;3.25;80.65;103632.44;5034973;28;11662;-67
2023/01/23 02:43:27;;;;;;;;;13.50;13.00;;;;;3.23;79.96;103635.16;5051293;28;11490;-67
2023/01/23 02:46:03;;;;;;;;;18.25;13.00;;;;;3.22;80.52;103629.94;5038409;28;11505;-69
2023/01/23 02:48:30;;;;;;;;;16.00;14.25;;;;;3.27;80.23;103621.69;5047336;28;11470;-67
2023/01/23 02:50:58;;;;;;;;;19.50;13.50;;;;;3.31;80.10;103624.13;5035280;28;11465;-68
2023/01/23 02:53:25;;;;;;;;;11.00;10.00;;;;;3.34;80.11;103623.13;5042595;28;12273;-67
2023/01/23 02:55:52;;;;;;;;;21.25;16.00;;;;;3.31;80.06;103631.25;5037611;28;11471;-68
2023/01/23 03:01:07;;;;;;;;;16.25;14.75;;;;;3.26;80.00;103634.16;5047666;28;11617;-68
2023/01/23 03:03:34;;;;;;;;;16.00;13.25;;;;;3.26;79.49;103636.81;5043475;28;11731;-66
2023/01/23 03:06:02;;;;;;;;;18.50;17.25;;;;;3.21;79.54;103639.72;5048645;28;11520;-68
2023/01/23 03:08:35;;;;;;;;;18.25;16.75;;;;;3.16;79.66;103633.78;5050018;28;11527;-65
2023/01/23 03:11:03;;;;;;;;;22.00;17.50;;;;;3.17;79.79;103638.16;5047750;28;11540;-68
2023/01/23 03:13:30;;;;;;;;;19.00;14.00;;;;;3.15;79.94;103642.66;5050570;28;11648;-68
2023/01/23 03:15:57;;;;;;;;;19.75;14.75;;;;;3.11;80.06;103648.22;5046647;28;11518;-67
2023/01/23 03:18:26;;;;;;;;;22.75;17.00;;;;;3.10;80.39;103646.50;5044926;28;11543;-68
2023/01/23 03:20:53;;;;;;;;;17.25;14.50;;;;;3.06;80.01;103645.81;5032089;28;11676;-67
2023/01/23 03:23:22;;;;;;;;;19.25;16.00;;;;;3.07;80.85;103644.00;5046895;28;11523;-69
2023/01/23 03:25:48;;;;;;;;;19.75;19.00;;;;;3.08;80.31;103651.94;5065526;28;11550;-67
2023/01/23 03:31:14;;;;;;;;;18.50;18.50;;;;;3.17;80.76;103656.78;5044813;28;11657;-68
2023/01/23 03:33:43;;;;;;;;;20.00;18.00;;;;;3.19;80.76;103656.69;5045628;28;11556;-67
2023/01/23 03:36:12;;;;;;;;;19.00;15.50;;;;;3.18;80.60;103654.97;5050420;28;11540;-68
2023/01/23 03:41:23;;;;;;;;;20.75;16.00;;;;;3.16;80.61;103655.06;5040471;28;11480;-67
2023/01/23 03:41:26;;;;;;;;;19.75;17.75;;;;;3.21;80.71;103660.16;5040681;28;11564;-68
2023/01/23 03:43:58;;;;;;;;;23.25;20.00;;;;;3.18;79.95;103658.50;5034270;28;11666;-67
2023/01/23 03:46:25;;;;;;;;;20.00;17.75;;;;;3.13;80.10;103660.53;5051302;28;11545;-69
2023/01/23 03:48:51;;;;;;;;;19.75;15.75;;;;;3.17;81.22;103662.09;5048408;28;12355;-67
2023/01/23 03:51:18;;;;;;;;;25.00;21.25;;;;;3.16;80.31;103656.84;5049645;28;11661;-69
2023/01/23 03:53:44;;;;;;;;;29.50;23.25;;;;;3.14;80.50;103656.06;5048538;28;11531;-68
2023/01/23 03:56:11;;;;;;;;;15.75;15.25;;;;;3.17;80.79;103661.25;5049786;28;11538;-68
2023/01/23 03:58:37;;;;;;;;;21.25;16.00;;;;;3.17;80.35;103667.44;5049587;28;11517;-68
2023/01/23 04:01:06;;;;;;;;;20.00;17.00;;;;;3.18;80.67;103666.47;5051110;28;12259;-69
2023/01/23 04:03:35;;;;;;;;;14.75;13.50;;;;;3.23;81.29;103669.75;5048361;28;12388;-68
2023/01/23 04:06:02;;;;;;;;;15.00;13.25;;;;;3.27;80.66;103662.50;5043390;28;11603;-68
2023/01/23 04:08:29;;;;;;;;;22.75;16.25;;;;;3.29;80.69;103660.63;5048771;28;12059;-68
2023/01/23 04:11:08;;;;;;;;;26.75;13.75;;;;;3.32;80.86;103656.94;5039222;28;12263;-68
2023/01/23 04:13:35;;;;;;;;;19.50;17.00;;;;;3.31;80.26;103647.22;5048828;28;11561;-68
2023/01/23 04:16:03;;;;;;;;;22.50;20.00;;;;;3.28;80.40;103645.59;5047235;28;11529;-68
2023/01/23 04:18:29;;;;;;;;;26.75;21.25;;;;;3.31;80.83;103655.22;5045318;28;11557;-69
2023/01/23 04:20:56;;;;;;;;;22.00;20.50;;;;;3.25;79.93;103647.56;5048057;28;11537;-68
2023/01/23 04:23:24;;;;;;;;;17.00;16.00;;;;;3.25;80.78;103653.75;5047638;28;11558;-68
2023/01/23 04:25:51;;;;;;;;;22.00;17.00;;;;;3.28;80.24;103658.91;5048636;28;11612;-68
2023/01/23 04:28:18;;;;;;;;;21.50;15.50;;;;;3.23;80.23;103653.78;5050714;28;11513;-67
2023/01/23 04:30:49;;;;;;;;;19.50;13.50;;;;;3.23;80.69;103663.59;5046848;28;11664;-68
2023/01/23 04:33:26;;;;;;;;;20.00;19.50;;;;;3.24;80.20;103662.63;5042227;28;11561;-67
2023/01/23 04:35:56;;;;;;;;;26.75;15.25;;;;;3.20;80.45;103655.75;5040402;28;11595;-68
2023/01/23 04:38:26;;;;;;;;;22.00;16.50;;;;;3.18;80.60;103660.28;5047948;28;11562;-68
2023/01/23 04:40:53;;;;;;;;;19.50;17.25;;;;;3.19;80.45;103660.22;5047083;28;11522;-67
2023/01/23 04:43:20;;;;;;;;;25.00;21.00;;;;;3.20;80.52;103664.63;5053977;28;11534;-64
2023/01/23 04:45:51;;;;;;;;;21.00;18.00;;;;;3.21;80.29;103666.34;5044218;28;12294;-67
2023/01/23 04:48:37;;;;;;;;;21.00;14.75;;;;;3.20;80.15;103666.38;5045475;28;11566;-69
2023/01/23 04:51:04;;;;;;;;;22.50;16.00;;;;;3.18;80.40;103668.28;5065292;28;11713;-68
2023/01/23 04:53:31;;;;;;;;;21.25;19.25;;;;;3.21;81.07;103669.00;5047282;28;11544;-68
2023/01/23 04:56:01;;;;;;;;;18.25;16.75;;;;;3.28;80.80;103674.00;5043942;28;11526;-68
2023/01/23 04:58:28;;;;;;;;;19.00;18.25;;;;;3.26;80.27;103674.09;5044571;28;11567;-69
2023/01/23 05:01:01;;;;;;;;;19.50;14.50;;;;;3.23;80.76;103679.56;5044765;28;11514;-69
2023/01/23 05:03:31;;;;;;;;;20.25;14.75;;;;;3.26;81.37;103682.06;5049496;28;11536;-68
2023/01/23 05:05:58;;;;;;;;;14.75;13.25;;;;;3.30;81.12;103683.66;5044400;28;11644;-68
2023/01/23 05:08:25;;;;;;;;;21.00;17.25;;;;;3.31;80.95;103680.03;5048179;28;11548;-68
2023/01/23 05:11:05;;;;;;;;;19.50;16.00;;;;;3.32;80.89;103681.78;5036537;28;11625;-67
2023/01/23 05:13:32;;;;;;;;;21.75;18.00;;;;;3.30;80.54;103680.97;5043812;28;12432;-69
2023/01/23 05:15:59;;;;;;;;;17.25;17.25;;;;;3.29;81.06;103676.59;5037654;28;11529;-66
2023/01/23 05:18:28;;;;;;;;;17.00;17.00;;;;;3.30;80.65;103673.00;5047878;28;11595;-67
2023/01/23 05:20:55;;;;;;;;;17.00;17.00;;;;;3.30;81.08;103667.66;5046057;28;11571;-66
2023/01/23 05:23:22;;;;;;;;;14.00;13.75;;;;;3.32;81.46;103664.91;5041676;28;11485;-67
2023/01/23 05:25:50;;;;;;;;;17.75;16.50;;;;;3.33;81.17;103661.34;5042641;28;12307;-67
2023/01/23 05:28:17;;;;;;;;;16.75;13.75;;;;;3.33;81.27;103678.16;5046927;28;11531;-67
2023/01/23 05:30:48;;;;;;;;;21.50;18.50;;;;;3.28;80.53;103666.91;5063838;28;11659;-69
2023/01/23 05:33:23;;;;;;;;;25.25;17.75;;;;;3.27;80.72;103678.47;5043326;28;11593;-66
2023/01/23 05:35:50;;;;;;;;;13.50;13.50;;;;;3.27;80.76;103677.59;5060876;28;11583;-68
2023/01/23 05:38:17;;;;;;;;;17.00;16.25;;;;;3.23;80.41;103668.91;5038649;28;11700;-68
2023/01/23 05:40:44;;;;;;;;;14.00;14.00;;;;;3.26;81.58;103674.09;5056693;28;11473;-68
2023/01/23 05:43:14;;;;;;;;;24.00;19.50;;;;;3.25;80.79;103685.69;5049808;28;11626;-67
2023/01/23 05:46:14;;;;;;;;;16.75;13.25;;;;;3.25;81.10;103680.34;5038419;28;11532;-67
2023/01/23 05:48:50;;;;;;;;;19.75;16.50;;;;;3.29;81.50;103686.41;5041650;28;11570;-67
2023/01/23 05:51:18;;;;;;;;;23.25;17.50;;;;;3.32;80.58;103687.09;5045625;28;11505;-65
2023/01/23 05:53:45;;;;;;;;;21.75;16.75;;;;;3.33;80.93;103687.97;5036600;28;11525;-67
2023/01/23 05:56:13;;;;;;;;;20.50;19.50;;;;;3.32;80.65;103687.09;5043462;28;11535;-67
2023/01/23 05:58:59;;;;;;;;;23.50;18.50;;;;;3.28;80.77;103685.53;5041079;28;11682;-67
2023/01/23 06:01:37;;;;;;;;;20.75;20.75;;;;;3.22;80.51;103684.03;5044066;28;11538;-68
2023/01/23 06:04:26;;;;;;;;;16.50;16.25;;;;;3.21;81.44;103684.97;5044481;28;11540;-67
2023/01/23 06:07:15;;;;;;;;;22.50;16.50;;;;;3.21;80.80;103687.63;5043850;28;11532;-67
2023/01/23 06:09:41;;;;;;;;;24.25;18.75;;;;;3.23;81.15;103695.53;5041033;28;12252;-69
2023/01/23 06:12:08;;;;;;;;;21.75;21.00;;;;;3.16;81.20;103686.13;5048215;28;11559;-66
2023/01/23 06:14:35;;;;;;;;;19.50;16.75;;;;;3.20;81.76;103693.00;5042022;28;11550;-66
2023/01/23 06:17:04;;;;;;;;;19.50;19.50;;;;;3.19;81.54;103689.50;5049628;28;12295;-68
2023/01/23 06:19:31;;;;;;;;;23.25;20.25;;;;;3.19;81.77;103686.81;5040685;28;11563;-68
2023/01/23 06:21:59;;;;;;;;;19.50;17.50;;;;;3.24;81.33;103697.25;5051029;28;11536;-67
2023/01/23 06:24:30;;;;;;;;;20.75;15.75;;;;;3.28;81.73;103697.97;5040505;28;11563;-68
2023/01/23 06:26:58;;;;;;;;;19.50;16.00;;;;;3.32;82.16;103689.78;5053071;28;11522;-68
2023/01/23 06:29:25;;;;;;;;;19.50;19.25;;;;;3.32;81.35;103692.44;5051740;28;11561;-66
2023/01/23 06:31:51;;;;;;;;;23.00;19.50;;;;;3.29;81.67;103703.22;5039168;28;11543;-67
2023/01/23 06:34:19;;;;;;;;;18.25;16.00;;;;;3.26;81.80;103708.69;5048120;28;11559;-67
2023/01/23 06:36:54;;;;;;;;;24.00;20.75;;;;;3.25;81.90;103706.97;5041891;28;11538;-67
2023/01/23 06:39:20;;;;;;;;;16.00;14.00;;;;;3.28;81.99;103706.84;5048165;28;11589;-66
2023/01/23 06:41:48;;;;;;;;;22.00;15.00;;;;;3.30;81.16;103709.41;5067075;28;11521;-67
2023/01/23 06:44:22;;;;;;;;;18.50;18.50;;;;;3.26;82.33;103706.03;5045065;28;11559;-65
2023/01/23 06:46:51;;;;;;;;;16.75;14.00;;;;;3.54;82.70;103712.63;5044575;28;11532;-69
2023/01/23 06:49:20;;;;;;;;;27.50;23.50;;;;;3.50;81.55;103705.75;5042622;28;11550;-68
2023/01/23 06:51:46;;;;;;;;;25.25;16.00;;;;;3.42;80.89;103701.66;5044250;28;11728;-68
2023/01/23 06:54:13;;;;;;;;;28.50;22.00;;;;;3.35;80.89;103707.38;5048530;28;12345;-68
2023/01/23 06:56:40;;;;;;;;;22.25;22.25;;;;;3.24;80.11;103707.88;5050294;28;11625;-66
2023/01/23 06:59:08;;;;;;;;;15.50;14.50;;;;;3.13;80.75;103708.44;5044608;28;11517;-66
2023/01/23 07:01:35;;;;;;;;;23.50;20.25;;;;;3.12;81.66;103706.72;5048558;28;11550;-69
2023/01/23 07:04:13;;;;;;;;;19.00;16.00;;;;;3.13;81.42;103707.59;5042470;28;11611;-67
2023/01/23 07:06:41;;;;;;;;;24.00;19.00;;;;;3.17;81.90;103714.47;5041722;28;11569;-66
2023/01/23 07:09:10;;;;;;;;;23.75;20.25;;;;;3.16;81.60;103712.72;5034927;28;12302;-67
2023/01/23 07:11:38;;;;;;;;;18.75;15.50;;;;;3.16;81.28;103721.59;5031096;28;11538;-67
2023/01/23 07:14:05;;;;;;;;;22.75;17.00;;;;;3.18;81.55;103732.16;5046885;28;11687;-67
2023/01/23 07:16:34;;;;;;;;;19.00;15.75;;;;;3.22;81.77;103725.75;5043989;28;12253;-66
2023/01/23 07:19:02;;;;;;;;;20.75;17.25;;;;;3.27;81.74;103729.03;5036513;28;11519;-67
2023/01/23 07:21:31;;;;;;;;;21.00;20.50;;;;;3.27;81.45;103730.84;5049220;28;11520;-66
2023/01/23 07:23:58;;;;;;;;;20.50;19.75;;;;;3.26;81.43;103729.13;5041119;28;11532;-68
2023/01/23 07:26:24;;;;;;;;;19.75;15.00;;;;;3.28;81.81;103730.78;5050607;28;11792;-65
2023/01/23 07:28:51;;;;;;;;;25.25;19.75;;;;;3.30;81.39;103725.38;5051177;28;11511;-67
2023/01/23 07:31:17;;;;;;;;;23.25;20.00;;;;;3.29;80.90;103732.50;5051437;28;11500;-67
2023/01/23 07:33:44;;;;;;;;;22.50;18.75;;;;;3.24;81.29;103729.19;5051397;28;11561;-66
2023/01/23 07:36:12;;;;;;;;;23.50;19.75;;;;;3.25;81.42;103732.75;5051227;28;11525;-66
2023/01/23 07:38:40;;;;;;;;;19.75;16.50;;;;;3.29;81.46;103740.50;5050151;28;11577;-67
2023/01/23 07:41:06;;;;;;;;;20.25;15.50;;;;;3.32;81.43;103740.34;5048590;28;11587;-66
2023/01/23 07:43:32;;;;;;;;;17.75;17.25;;;;;3.31;80.99;103743.94;5051342;28;11544;-66
2023/01/23 07:45:59;;;;;;;;;19.50;16.25;;;;;3.31;81.11;103745.72;5049230;28;11531;-67
2023/01/23 07:48:26;;;;;;;;;25.00;23.50;;;;;3.29;81.15;103742.31;5031391;28;11533;-67
2023/01/23 07:50:53;;;;;;;;;20.25;19.00;;;;;3.33;81.55;103741.22;5031226;28;11617;-67
2023/01/23 07:53:19;;;;;;;;;24.75;18.00;;;;;3.37;81.31;103746.31;5029861;28;11574;-65
2023/01/23 07:55:46;;;;;;;;;21.50;19.75;;;;;3.38;80.91;103756.00;5031068;28;11643;-65
2023/01/23 07:58:12;;;;;;;;;26.00;19.00;;;;;3.41;81.24;103761.19;5031018;28;11565;-66
2023/01/23 08:00:40;;;;;;;;;24.50;18.25;;;;;3.42;80.98;103760.25;5032473;28;11543;-68
2023/01/23 08:03:07;;;;;;;;;18.25;17.25;;;;;3.44;80.78;103762.81;5031721;28;11563;-67
2023/01/23 08:05:33;;;;;;;;;22.25;17.75;;;;;3.46;80.77;103759.16;5030785;28;11533;-65
2023/01/23 08:07:59;;;;;;;;;20.00;14.00;;;;;3.48;80.66;103761.72;5031033;28;11553;-66
2023/01/23 08:10:38;;;;;;;;;21.25;17.00;;;;;3.46;80.94;103772.47;5030868;28;11553;-68
2023/01/23 08:13:05;;;;;;;;;20.00;20.00;;;;;3.44;79.85;103776.13;5030764;28;11562;-67
2023/01/23 08:15:31;;;;;;;;;26.50;22.50;;;;;3.35;80.60;103772.13;5036840;28;11601;-67
2023/01/23 08:17:58;;;;;;;;;16.00;13.25;;;;;3.32;80.73;103780.28;5049431;28;11518;-66
2023/01/23 08:20:24;;;;;;;;;20.00;20.00;;;;;3.30;80.80;103767.97;5046886;28;11538;-69
2023/01/23 08:22:51;;;;;;;;;24.25;17.50;;;;;3.26;81.16;103782.38;5030691;28;11623;-68
2023/01/23 08:25:17;;;;;;;;;26.00;23.75;;;;;3.26;81.09;103780.56;5030404;28;11529;-68
2023/01/23 08:27:44;;;;;;;;;21.50;17.75;;;;;3.31;81.22;103791.84;5030984;28;11549;-68
2023/01/23 08:30:10;;;;;;;;;26.00;23.00;;;;;3.30;81.22;103797.25;5030809;28;11532;-68
2023/01/23 08:32:37;;;;;;;;;25.25;18.25;;;;;3.29;81.50;103798.22;5030699;28;12056;-69
2023/01/23 08:35:04;;;;;;;;;26.00;24.00;;;;;3.28;80.93;103799.13;5029956;28;11675;-67
2023/01/23 08:37:32;;;;;;;;;23.25;22.25;;;;;3.29;81.35;103808.84;5030488;28;11535;-69
2023/01/23 08:39:58;;;;;;;;;18.75;18.75;;;;;3.32;81.67;103804.25;5030469;28;11600;-69
2023/01/23 08:42:25;;;;;;;;;20.50;15.50;;;;;3.40;81.63;103806.50;5030405;28;12371;-69
2023/01/23 08:44:51;;;;;;;;;24.75;21.00;;;;;3.38;80.85;103805.75;5030016;28;11547;-67
2023/01/23 08:47:18;;;;;;;;;23.75;22.75;;;;;3.30;80.70;103811.44;5030814;28;12216;-67
2023/01/23 08:49:44;;;;;;;;;21.00;15.00;;;;;3.34;81.53;103807.69;5030532;28;11535;-67
2023/01/23 08:52:11;;;;;;;;;16.00;13.50;;;;;3.41;81.34;103810.94;5038121;28;11517;-67
2023/01/23 08:54:37;;;;;;;;;23.75;20.75;;;;;3.42;80.62;103815.31;5049434;28;11527;-68
2023/01/23 08:57:04;;;;;;;;;24.00;22.50;;;;;3.42;81.04;103817.97;5050230;28;11647;-67
2023/01/23 08:59:30;;;;;;;;;20.00;18.50;;;;;3.47;81.10;103814.13;5042185;28;11558;-67
2023/01/23 09:01:56;;;;;;;;;21.75;18.50;;;;;3.50;80.93;103820.25;5030350;28;11555;-67
2023/01/23 09:04:23;;;;;;;;;23.75;16.50;;;;;3.53;81.20;103818.31;5030031;28;11584;-66
2023/01/23 09:06:49;;;;;;;;;12.75;12.75;;;;;3.56;80.90;103823.47;5030195;28;11663;-67
2023/01/23 09:09:17;;;;;;;;;17.25;15.00;;;;;3.57;80.59;103822.56;5032779;28;11549;-67
2023/01/23 09:11:45;;;;;;;;;21.00;17.00;;;;;3.59;80.54;103819.81;5030145;28;11576;-68
2023/01/23 09:14:11;;;;;;;;;23.50;19.75;;;;;3.54;80.62;103821.84;5029767;28;11554;-67
2023/01/23 09:16:39;;;;;;;;;22.00;19.25;;;;;3.54;80.91;103824.50;5030104;28;11684;-66
2023/01/23 09:19:07;;;;;;;;;33.25;24.50;;;;;3.54;80.47;103817.38;5030124;28;11518;-66
2023/01/23 09:21:33;;;;;;;;;28.00;22.00;;;;;3.56;80.55;103828.78;5030216;28;11586;-67
2023/01/23 09:23:59;;;;;;;;;22.75;19.00;;;;;3.56;80.50;103827.94;5030125;28;11548;-68
2023/01/23 09:26:26;;;;;;;;;23.25;17.25;;;;;3.59;80.89;103826.00;5033009;28;11552;-67
2023/01/23 09:28:53;;;;;;;;;22.00;19.00;;;;;3.60;80.08;103833.03;5049795;28;11635;-68
2023/01/23 09:31:19;;;;;;;;;28.75;21.50;;;;;3.60;80.49;103829.50;5049900;28;11582;-67
2023/01/23 09:33:47;;;;;;;;;19.00;15.25;;;;;3.60;80.74;103830.38;5049738;28;11550;-67
2023/01/23 09:36:14;;;;;;;;;18.25;17.25;;;;;3.62;80.44;103831.19;5049684;28;11535;-65
2023/01/23 09:38:41;;;;;;;;;23.50;18.25;;;;;3.68;80.70;103830.00;5049933;28;12268;-67
2023/01/23 09:41:17;;;;;;;;;26.50;18.00;;;;;3.77;80.80;103826.00;5049777;28;11623;-68
2023/01/23 09:44:06;;;;;;;;;26.75;23.00;;;;;3.74;79.64;103832.38;5045862;28;12150;-67
2023/01/23 09:46:42;;;;;;;;;26.75;23.25;;;;;3.72;80.70;103828.91;5050595;28;11547;-67
2023/01/23 09:49:24;;;;;;;;;27.50;22.25;;;;;3.75;80.79;103838.56;5051287;28;11544;-67
2023/01/23 09:52:15;;;;;;;;;24.00;19.75;;;;;3.76;80.48;103846.47;5039627;28;12390;-67
2023/01/23 09:54:48;;;;;;;;;23.00;21.25;;;;;3.74;79.86;103840.38;5033352;28;11545;-68
2023/01/23 09:57:22;;;;;;;;;23.00;20.00;;;;;3.72;80.44;103836.91;5033645;28;11575;-66
2023/01/23 10:00:02;;;;;;;;;28.25;20.75;;;;;3.69;80.26;103842.41;5033820;28;12235;-69
2023/01/23 10:02:29;;;;;;;;;25.25;19.00;;;;;3.61;80.03;103839.25;5033525;28;11578;-66
2023/01/23 10:04:57;;;;;;;;;21.25;20.00;;;;;3.61;80.86;103841.91;5034059;28;11541;-67
2023/01/23 10:07:44;;;;;;;;;20.00;18.25;;;;;3.68;80.78;103840.66;5046204;28;11576;-67
2023/01/23 10:10:38;;;;;;;;;23.50;17.50;;;;;3.74;80.70;103840.38;5033300;28;12258;-67
2023/01/23 10:13:08;;;;;;;;;18.75;13.75;;;;;3.77;80.85;103840.22;5033105;28;11566;-67
2023/01/23 10:15:54;;;;;;;;;25.50;18.25;;;;;3.78;80.61;103833.94;5033167;28;11535;-68
2023/01/23 10:18:36;;;;;;;;;21.75;19.25;;;;;3.80;80.59;103833.84;5033145;28;12243;-68
2023/01/23 10:21:17;;;;;;;;;23.75;21.00;;;;;3.81;80.61;103828.47;5033658;28;11559;-68
2023/01/23 10:24:00;;;;;;;;;24.75;20.25;;;;;3.79;80.28;103829.47;5050790;28;11675;-68
2023/01/23 10:26:33;;;;;;;;;20.50;20.00;;;;;3.80;80.25;103826.72;5052995;28;11545;-67
2023/01/23 10:29:11;;;;;;;;;20.25;16.75;;;;;3.81;80.46;103825.81;5052696;28;11646;-67
2023/01/23 10:31:54;;;;;;;;;25.50;20.75;;;;;3.76;80.20;103822.50;5044477;28;11611;-67
2023/01/23 10:34:33;;;;;;;;;24.25;21.75;;;;;3.71;79.36;103819.19;5032678;28;11538;-66
2023/01/23 10:37:35;;;;;;;;;22.25;18.25;;;;;3.64;79.65;103815.97;5033300;28;11651;-67
2023/01/23 10:40:09;;;;;;;;;28.75;21.25;;;;;3.64;80.19;103825.75;5042172;28;11639;-67
2023/01/23 10:42:35;;;;;;;;;25.25;21.25;;;;;3.62;80.12;103819.66;5036820;28;11538;-67
2023/01/23 10:45:02;;;;;;;;;28.00;26.25;;;;;3.61;79.95;103826.78;5033145;28;12427;-67
2023/01/23 10:47:44;;;;;;;;;26.00;21.25;;;;;3.62;80.68;103833.84;5032906;28;11546;-67
2023/01/23 10:50:35;;;;;;;;;26.25;22.50;;;;;3.62;80.08;103825.00;5032836;28;11612;-69
2023/01/23 10:53:07;;;;;;;;;33.00;21.50;;;;;3.64;80.32;103825.75;5032469;28;12290;-67
2023/01/23 10:55:33;;;;;;;;;22.25;18.75;;;;;3.67;80.42;103825.63;5032413;28;11527;-67
2023/01/23 10:58:05;;;;;;;;;24.25;23.25;;;;;3.72;80.49;103827.09;5050028;28;11508;-68
2023/01/23 11:00:43;;;;;;;;;28.50;18.75;;;;;3.78;80.87;103823.28;5042006;28;11536;-68
2023/01/23 11:03:18;;;;;;;;;22.00;20.00;;;;;3.88;80.44;103819.22;5032391;28;11612;-68
2023/01/23 11:05:54;;;;;;;;;23.25;20.25;;;;;3.92;80.21;103820.78;5031912;28;11544;-68
2023/01/23 11:08:27;;;;;;;;;28.25;25.75;;;;;4.03;80.38;103816.72;5032021;28;11594;-68
2023/01/23 11:11:17;;;;;;;;;21.00;18.50;;;;;4.12;80.36;103827.75;5031979;28;11626;-69
2023/01/23 11:13:46;;;;;;;;;19.50;17.25;;;;;4.13;78.90;103828.63;5033499;28;11604;-68
2023/01/23 11:16:15;;;;;;;;;26.00;22.75;;;;;4.14;79.08;103827.69;5032693;28;11483;-68
2023/01/23 11:18:50;;;;;;;;;34.25;29.75;;;;;4.07;77.88;103832.47;5049034;28;11528;-66
2023/01/23 11:21:22;;;;;;;;;27.00;20.75;;;;;4.11;78.81;103826.03;5051599;28;11583;-67
2023/01/23 11:24:16;;;;;;;;;22.50;17.25;;;;;4.18;78.59;103829.28;5051739;28;11633;-66
2023/01/23 11:26:46;;;;;;;;;28.75;20.50;;;;;4.13;78.53;103821.50;5051684;28;11557;-66
2023/01/23 11:29:25;;;;;;;;;23.00;19.50;;;;;4.14;78.00;103823.22;5051577;28;11630;-67
2023/01/23 11:32:01;;;;;;;;;30.00;19.75;;;;;4.14;78.55;103820.56;5050919;28;11523;-66
2023/01/23 11:34:37;;;;;;;;;20.25;17.75;;;;;4.22;78.71;103829.03;5051181;28;11642;-67
2023/01/23 11:37:17;;;;;;;;;36.75;28.25;;;;;4.32;77.96;103828.53;5051556;28;11473;-69